sensor_id;sensor_type;location;lat;lon;timestamp;pressure;altitude;pressure_sealevel;temperature;humidity
21633;BME280;48765;51.568;8.840;2022-09-21T00:01:53;99409.34;;;5.83;100.00
21633;BME280;48765;51.568;8.840;2022-09-21T00:04:20;99420.63;;;6.11;100.00
21633;BME280;48765;51.568;8.840;2022-09-21T00:06:46;99410.03;;;6.08;100.00
21633;BME280;48765;51.568;8.840;2022-09-21T00:09:13;99416.84;;;6.00;100.00
21633;BME280;48765;51.568;8.840;2022-09-21T00:11:42;99418.03;;;5.81;100.00
21633;BME280;48765;51.568;8.840;2022-09-21T00:14:09;99415.41;;;5.81;100.00
21633;BME280;48765;51.568;8.840;2022-09-21T00:16:37;99408.19;;;5.74;100.00
21633;BME280;48765;51.568;8.840;2022-09-21T00:19:04;99416.81;;;5.68;100.00
21633;BME280;48765;51.568;8.840;2022-09-21T00:21:31;99414.66;;;5.55;100.00
21633;BME280;48765;51.568;8.840;2022-09-21T00:23:58;99415.09;;;5.38;100.00
21633;BME280;48765;51.568;8.840;2022-09-21T00:26:27;99410.19;;;5.51;100.00
21633;BME280;48765;51.568;8.840;2022-09-21T00:28:56;99422.56;;;5.55;100.00
21633;BME280;48765;51.568;8.840;2022-09-21T00:31:23;99424.09;;;5.47;100.00
21633;BME280;48765;51.568;8.840;2022-09-21T00:33:50;99425.47;;;5.34;100.00
21633;BME280;48765;51.568;8.840;2022-09-21T00:36:18;99429.38;;;5.47;100.00
21633;BME280;48765;51.568;8.840;2022-09-21T00:38:48;99424.16;;;5.50;100.00
21633;BME280;48765;51.568;8.840;2022-09-21T00:41:15;99428.00;;;5.31;100.00
21633;BME280;48765;51.568;8.840;2022-09-21T00:43:44;99424.41;;;5.27;100.00
21633;BME280;48765;51.568;8.840;2022-09-21T00:46:13;99423.53;;;5.57;100.00
21633;BME280;48765;51.568;8.840;2022-09-21T00:48:41;99429.44;;;5.50;100.00
21633;BME280;48765;51.568;8.840;2022-09-21T00:51:10;99424.28;;;5.23;100.00
21633;BME280;48765;51.568;8.840;2022-09-21T00:53:37;99422.53;;;5.23;100.00
21633;BME280;48765;51.568;8.840;2022-09-21T00:56:04;99419.63;;;5.14;100.00
21633;BME280;48765;51.568;8.840;2022-09-21T00:58:33;99423.19;;;5.16;100.00
21633;BME280;48765;51.568;8.840;2022-09-21T01:01:02;99430.50;;;5.26;100.00
21633;BME280;48765;51.568;8.840;2022-09-21T01:03:31;99432.84;;;5.17;100.00
21633;BME280;48765;51.568;8.840;2022-09-21T01:05:58;99433.41;;;5.35;100.00
21633;BME280;48765;51.568;8.840;2022-09-21T01:08:25;99436.28;;;5.15;100.00
21633;BME280;48765;51.568;8.840;2022-09-21T01:11:01;99433.81;;;5.19;100.00
21633;BME280;48765;51.568;8.840;2022-09-21T01:13:31;99441.13;;;5.29;100.00
21633;BME280;48765;51.568;8.840;2022-09-21T01:16:04;99435.47;;;5.17;100.00
21633;BME280;48765;51.568;8.840;2022-09-21T01:18:36;99444.44;;;5.22;100.00
21633;BME280;48765;51.568;8.840;2022-09-21T01:21:14;99440.75;;;5.17;100.00
21633;BME280;48765;51.568;8.840;2022-09-21T01:26:30;99435.34;;;5.12;100.00
21633;BME280;48765;51.568;8.840;2022-09-21T01:29:10;99438.59;;;5.32;100.00
21633;BME280;48765;51.568;8.840;2022-09-21T01:31:38;99433.97;;;5.25;100.00
21633;BME280;48765;51.568;8.840;2022-09-21T01:34:08;99440.22;;;5.29;100.00
21633;BME280;48765;51.568;8.840;2022-09-21T01:36:37;99441.69;;;5.19;100.00
21633;BME280;48765;51.568;8.840;2022-09-21T01:39:08;99447.66;;;5.13;100.00
21633;BME280;48765;51.568;8.840;2022-09-21T01:41:37;99447.53;;;5.09;100.00
21633;BME280;48765;51.568;8.840;2022-09-21T01:44:06;99451.22;;;5.16;100.00
21633;BME280;48765;51.568;8.840;2022-09-21T01:46:36;99449.53;;;5.18;100.00
21633;BME280;48765;51.568;8.840;2022-09-21T01:49:04;99440.97;;;5.25;100.00
21633;BME280;48765;51.568;8.840;2022-09-21T01:51:33;99443.09;;;5.08;100.00
21633;BME280;48765;51.568;8.840;2022-09-21T01:54:01;99444.09;;;4.84;100.00
21633;BME280;48765;51.568;8.840;2022-09-21T01:56:32;99438.31;;;4.95;100.00
21633;BME280;48765;51.568;8.840;2022-09-21T01:59:03;99438.59;;;5.04;100.00
21633;BME280;48765;51.568;8.840;2022-09-21T02:01:33;99439.81;;;5.15;100.00
21633;BME280;48765;51.568;8.840;2022-09-21T02:04:07;99444.03;;;5.10;100.00
21633;BME280;48765;51.568;8.840;2022-09-21T02:06:34;99450.50;;;4.93;100.00
21633;BME280;48765;51.568;8.840;2022-09-21T02:09:04;99448.91;;;4.98;100.00
21633;BME280;48765;51.568;8.840;2022-09-21T02:11:31;99441.69;;;4.91;100.00
21633;BME280;48765;51.568;8.840;2022-09-21T02:13:58;99449.84;;;4.71;100.00
21633;BME280;48765;51.568;8.840;2022-09-21T02:16:28;99453.94;;;4.63;100.00
21633;BME280;48765;51.568;8.840;2022-09-21T02:19:02;99446.34;;;4.72;100.00
21633;BME280;48765;51.568;8.840;2022-09-21T02:21:40;99458.47;;;4.94;100.00
21633;BME280;48765;51.568;8.840;2022-09-21T02:24:12;99444.78;;;4.77;100.00
21633;BME280;48765;51.568;8.840;2022-09-21T02:26:48;99445.38;;;4.69;100.00
21633;BME280;48765;51.568;8.840;2022-09-21T02:29:18;99448.72;;;4.65;100.00
21633;BME280;48765;51.568;8.840;2022-09-21T02:31:47;99441.28;;;4.78;100.00
21633;BME280;48765;51.568;8.840;2022-09-21T02:34:18;99446.94;;;4.64;100.00
21633;BME280;48765;51.568;8.840;2022-09-21T02:36:50;99452.59;;;4.49;100.00
21633;BME280;48765;51.568;8.840;2022-09-21T02:39:23;99442.88;;;4.46;100.00
21633;BME280;48765;51.568;8.840;2022-09-21T02:41:56;99449.00;;;4.47;100.00
21633;BME280;48765;51.568;8.840;2022-09-21T02:44:28;99440.50;;;4.54;100.00
21633;BME280;48765;51.568;8.840;2022-09-21T02:46:58;99446.53;;;4.51;100.00
21633;BME280;48765;51.568;8.840;2022-09-21T02:49:27;99438.00;;;4.57;100.00
21633;BME280;48765;51.568;8.840;2022-09-21T02:51:58;99441.09;;;4.72;100.00
21633;BME280;48765;51.568;8.840;2022-09-21T02:54:27;99440.63;;;4.57;100.00
21633;BME280;48765;51.568;8.840;2022-09-21T02:56:55;99445.34;;;4.42;100.00
21633;BME280;48765;51.568;8.840;2022-09-21T02:59:24;99446.19;;;4.66;100.00
21633;BME280;48765;51.568;8.840;2022-09-21T03:01:51;99447.81;;;4.63;100.00
21633;BME280;48765;51.568;8.840;2022-09-21T03:04:18;99452.59;;;4.49;100.00
21633;BME280;48765;51.568;8.840;2022-09-21T03:06:45;99447.22;;;4.46;100.00
21633;BME280;48765;51.568;8.840;2022-09-21T03:09:14;99457.88;;;4.50;100.00
21633;BME280;48765;51.568;8.840;2022-09-21T03:11:41;99446.78;;;4.32;100.00
21633;BME280;48765;51.568;8.840;2022-09-21T03:14:08;99450.81;;;4.22;100.00
21633;BME280;48765;51.568;8.840;2022-09-21T03:16:35;99449.09;;;4.23;100.00
21633;BME280;48765;51.568;8.840;2022-09-21T03:19:02;99449.97;;;4.23;100.00
21633;BME280;48765;51.568;8.840;2022-09-21T03:21:29;99450.19;;;4.29;100.00
21633;BME280;48765;51.568;8.840;2022-09-21T03:23:56;99458.97;;;4.30;100.00
21633;BME280;48765;51.568;8.840;2022-09-21T03:26:24;99455.13;;;4.46;100.00
21633;BME280;48765;51.568;8.840;2022-09-21T03:28:52;99458.13;;;4.31;100.00
21633;BME280;48765;51.568;8.840;2022-09-21T03:31:20;99459.09;;;4.33;100.00
21633;BME280;48765;51.568;8.840;2022-09-21T03:33:47;99461.59;;;4.30;100.00
21633;BME280;48765;51.568;8.840;2022-09-21T03:36:14;99461.16;;;4.43;100.00
21633;BME280;48765;51.568;8.840;2022-09-21T03:38:41;99459.81;;;4.29;100.00
21633;BME280;48765;51.568;8.840;2022-09-21T03:41:08;99466.66;;;4.24;100.00
21633;BME280;48765;51.568;8.840;2022-09-21T03:43:37;99462.28;;;4.24;100.00
21633;BME280;48765;51.568;8.840;2022-09-21T03:46:04;99460.38;;;4.20;100.00
21633;BME280;48765;51.568;8.840;2022-09-21T03:48:30;99467.53;;;4.24;100.00
21633;BME280;48765;51.568;8.840;2022-09-21T03:50:58;99465.94;;;4.29;100.00
21633;BME280;48765;51.568;8.840;2022-09-21T03:53:25;99466.47;;;4.19;100.00
21633;BME280;48765;51.568;8.840;2022-09-21T03:55:52;99459.06;;;4.07;100.00
21633;BME280;48765;51.568;8.840;2022-09-21T03:58:19;99467.09;;;4.12;100.00
21633;BME280;48765;51.568;8.840;2022-09-21T04:00:47;99461.53;;;4.03;100.00
21633;BME280;48765;51.568;8.840;2022-09-21T04:03:14;99461.47;;;4.01;100.00
21633;BME280;48765;51.568;8.840;2022-09-21T04:05:41;99463.09;;;4.23;100.00
21633;BME280;48765;51.568;8.840;2022-09-21T04:08:08;99463.41;;;4.07;100.00
21633;BME280;48765;51.568;8.840;2022-09-21T04:10:37;99467.47;;;4.23;100.00
21633;BME280;48765;51.568;8.840;2022-09-21T04:13:07;99461.13;;;4.16;100.00
21633;BME280;48765;51.568;8.840;2022-09-21T04:15:34;99467.41;;;4.21;100.00
21633;BME280;48765;51.568;8.840;2022-09-21T04:18:02;99466.16;;;4.10;100.00
21633;BME280;48765;51.568;8.840;2022-09-21T04:20:30;99461.28;;;3.95;100.00
21633;BME280;48765;51.568;8.840;2022-09-21T04:22:57;99460.31;;;3.93;100.00
21633;BME280;48765;51.568;8.840;2022-09-21T04:25:24;99458.75;;;3.74;100.00
21633;BME280;48765;51.568;8.840;2022-09-21T04:27:51;99465.22;;;3.84;100.00
21633;BME280;48765;51.568;8.840;2022-09-21T04:30:18;99458.50;;;4.16;100.00
21633;BME280;48765;51.568;8.840;2022-09-21T04:32:45;99463.31;;;4.04;100.00
21633;BME280;48765;51.568;8.840;2022-09-21T04:35:14;99460.09;;;3.87;100.00
21633;BME280;48765;51.568;8.840;2022-09-21T04:37:41;99461.13;;;3.91;100.00
21633;BME280;48765;51.568;8.840;2022-09-21T04:40:08;99464.78;;;3.96;100.00
21633;BME280;48765;51.568;8.840;2022-09-21T04:42:35;99459.97;;;3.84;100.00
21633;BME280;48765;51.568;8.840;2022-09-21T04:45:02;99458.50;;;3.91;100.00
21633;BME280;48765;51.568;8.840;2022-09-21T04:47:29;99456.34;;;3.80;100.00
21633;BME280;48765;51.568;8.840;2022-09-21T04:49:56;99466.53;;;3.95;100.00
21633;BME280;48765;51.568;8.840;2022-09-21T04:52:25;99462.97;;;3.95;100.00
21633;BME280;48765;51.568;8.840;2022-09-21T04:54:52;99467.69;;;3.79;100.00
21633;BME280;48765;51.568;8.840;2022-09-21T04:57:19;99462.66;;;3.85;100.00
21633;BME280;48765;51.568;8.840;2022-09-21T04:59:46;99465.78;;;3.75;100.00
21633;BME280;48765;51.568;8.840;2022-09-21T05:02:13;99471.59;;;3.67;100.00
21633;BME280;48765;51.568;8.840;2022-09-21T05:04:40;99466.41;;;3.68;100.00
21633;BME280;48765;51.568;8.840;2022-09-21T05:07:07;99475.56;;;3.79;100.00
21633;BME280;48765;51.568;8.840;2022-09-21T05:09:36;99473.94;;;3.83;100.00
21633;BME280;48765;51.568;8.840;2022-09-21T05:12:20;99477.47;;;3.83;100.00
21633;BME280;48765;51.568;8.840;2022-09-21T05:14:47;99483.94;;;3.69;100.00
21633;BME280;48765;51.568;8.840;2022-09-21T05:17:14;99487.47;;;3.71;100.00
21633;BME280;48765;51.568;8.840;2022-09-21T05:19:41;99491.59;;;3.63;100.00
21633;BME280;48765;51.568;8.840;2022-09-21T05:22:08;99498.31;;;3.80;100.00
21633;BME280;48765;51.568;8.840;2022-09-21T05:24:37;99506.34;;;3.85;100.00
21633;BME280;48765;51.568;8.840;2022-09-21T05:27:04;99509.22;;;3.67;100.00
21633;BME280;48765;51.568;8.840;2022-09-21T05:29:31;99516.28;;;3.94;100.00
21633;BME280;48765;51.568;8.840;2022-09-21T05:32:00;99515.03;;;3.82;100.00
21633;BME280;48765;51.568;8.840;2022-09-21T05:34:34;99509.31;;;3.70;100.00
21633;BME280;48765;51.568;8.840;2022-09-21T05:37:05;99518.44;;;3.57;100.00
21633;BME280;48765;51.568;8.840;2022-09-21T05:39:33;99522.06;;;3.61;100.00
21633;BME280;48765;51.568;8.840;2022-09-21T05:42:02;99511.41;;;3.56;100.00
21633;BME280;48765;51.568;8.840;2022-09-21T05:44:29;99522.06;;;3.83;100.00
21633;BME280;48765;51.568;8.840;2022-09-21T05:46:58;99515.25;;;3.89;100.00
21633;BME280;48765;51.568;8.840;2022-09-21T05:49:33;99519.13;;;4.00;100.00
21633;BME280;48765;51.568;8.840;2022-09-21T05:52:05;99521.28;;;4.10;100.00
21633;BME280;48765;51.568;8.840;2022-09-21T05:54:38;99518.22;;;4.23;100.00
21633;BME280;48765;51.568;8.840;2022-09-21T05:57:11;99520.44;;;4.36;100.00
21633;BME280;48765;51.568;8.840;2022-09-21T05:59:45;99520.91;;;4.50;100.00
21633;BME280;48765;51.568;8.840;2022-09-21T06:02:18;99517.94;;;4.40;100.00
21633;BME280;48765;51.568;8.840;2022-09-21T06:04:49;99528.03;;;4.53;100.00
21633;BME280;48765;51.568;8.840;2022-09-21T06:07:16;99528.72;;;4.74;100.00
21633;BME280;48765;51.568;8.840;2022-09-21T06:09:43;99532.81;;;4.92;100.00
21633;BME280;48765;51.568;8.840;2022-09-21T06:12:12;99536.38;;;4.67;100.00
21633;BME280;48765;51.568;8.840;2022-09-21T06:14:39;99540.03;;;4.72;100.00
21633;BME280;48765;51.568;8.840;2022-09-21T06:17:05;99541.97;;;4.77;100.00
21633;BME280;48765;51.568;8.840;2022-09-21T06:19:32;99537.53;;;5.02;100.00
21633;BME280;48765;51.568;8.840;2022-09-21T06:21:59;99539.13;;;4.97;100.00
21633;BME280;48765;51.568;8.840;2022-09-21T06:24:26;99541.19;;;5.07;100.00
21633;BME280;48765;51.568;8.840;2022-09-21T06:26:53;99535.38;;;5.17;100.00
21633;BME280;48765;51.568;8.840;2022-09-21T06:29:21;99539.84;;;5.47;100.00
21633;BME280;48765;51.568;8.840;2022-09-21T06:31:49;99527.78;;;5.55;100.00
21633;BME280;48765;51.568;8.840;2022-09-21T06:34:16;99530.56;;;5.59;100.00
21633;BME280;48765;51.568;8.840;2022-09-21T06:36:43;99531.06;;;5.76;100.00
21633;BME280;48765;51.568;8.840;2022-09-21T06:39:11;99526.81;;;5.81;100.00
21633;BME280;48765;51.568;8.840;2022-09-21T06:41:38;99518.78;;;6.07;100.00
21633;BME280;48765;51.568;8.840;2022-09-21T06:44:05;99525.94;;;6.11;100.00
21633;BME280;48765;51.568;8.840;2022-09-21T06:46:33;99529.31;;;6.37;100.00
21633;BME280;48765;51.568;8.840;2022-09-21T06:49:00;99524.16;;;6.42;100.00
21633;BME280;48765;51.568;8.840;2022-09-21T06:51:27;99524.81;;;6.34;100.00
21633;BME280;48765;51.568;8.840;2022-09-21T06:53:54;99528.47;;;6.39;100.00
21633;BME280;48765;51.568;8.840;2022-09-21T06:56:22;99533.72;;;6.38;100.00
21633;BME280;48765;51.568;8.840;2022-09-21T06:58:49;99527.56;;;6.72;100.00
21633;BME280;48765;51.568;8.840;2022-09-21T07:01:16;99530.78;;;6.94;100.00
21633;BME280;48765;51.568;8.840;2022-09-21T07:03:47;99533.63;;;7.03;100.00
21633;BME280;48765;51.568;8.840;2022-09-21T07:06:15;99528.81;;;7.21;100.00
21633;BME280;48765;51.568;8.840;2022-09-21T07:08:42;99534.28;;;7.30;100.00
21633;BME280;48765;51.568;8.840;2022-09-21T07:11:10;99531.97;;;7.44;100.00
21633;BME280;48765;51.568;8.840;2022-09-21T07:13:37;99536.69;;;7.59;100.00
21633;BME280;48765;51.568;8.840;2022-09-21T07:16:04;99534.31;;;7.71;100.00
21633;BME280;48765;51.568;8.840;2022-09-21T07:18:32;99534.38;;;7.74;100.00
21633;BME280;48765;51.568;8.840;2022-09-21T07:21:02;99532.84;;;7.85;100.00
21633;BME280;48765;51.568;8.840;2022-09-21T07:23:29;99532.25;;;7.99;100.00
21633;BME280;48765;51.568;8.840;2022-09-21T07:25:59;99528.94;;;8.09;100.00
21633;BME280;48765;51.568;8.840;2022-09-21T07:28:26;99532.72;;;8.20;100.00
21633;BME280;48765;51.568;8.840;2022-09-21T07:30:53;99529.38;;;8.30;100.00
21633;BME280;48765;51.568;8.840;2022-09-21T07:33:21;99532.31;;;8.42;100.00
21633;BME280;48765;51.568;8.840;2022-09-21T07:35:51;99536.03;;;8.55;100.00
21633;BME280;48765;51.568;8.840;2022-09-21T07:38:19;99526.50;;;8.62;100.00
21633;BME280;48765;51.568;8.840;2022-09-21T07:40:47;99531.88;;;8.68;100.00
21633;BME280;48765;51.568;8.840;2022-09-21T07:43:14;99527.81;;;8.88;100.00
21633;BME280;48765;51.568;8.840;2022-09-21T07:45:42;99531.69;;;9.09;100.00
21633;BME280;48765;51.568;8.840;2022-09-21T07:48:08;99528.19;;;9.11;100.00
21633;BME280;48765;51.568;8.840;2022-09-21T07:50:35;99526.66;;;9.26;100.00
21633;BME280;48765;51.568;8.840;2022-09-21T07:53:02;99520.59;;;9.33;100.00
21633;BME280;48765;51.568;8.840;2022-09-21T07:55:31;99521.56;;;9.38;100.00
21633;BME280;48765;51.568;8.840;2022-09-21T07:57:58;99523.41;;;9.45;100.00
21633;BME280;48765;51.568;8.840;2022-09-21T08:00:42;99521.78;;;9.53;100.00
21633;BME280;48765;51.568;8.840;2022-09-21T08:03:09;99528.16;;;9.66;100.00
21633;BME280;48765;51.568;8.840;2022-09-21T08:05:36;99516.88;;;9.81;100.00
21633;BME280;48765;51.568;8.840;2022-09-21T08:08:03;99526.63;;;9.86;100.00
21633;BME280;48765;51.568;8.840;2022-09-21T08:10:31;99522.28;;;9.91;100.00
21633;BME280;48765;51.568;8.840;2022-09-21T08:12:59;99524.28;;;10.09;100.00
21633;BME280;48765;51.568;8.840;2022-09-21T08:15:26;99527.81;;;10.11;100.00
21633;BME280;48765;51.568;8.840;2022-09-21T08:17:53;99527.94;;;10.20;100.00
21633;BME280;48765;51.568;8.840;2022-09-21T08:20:21;99531.50;;;10.22;100.00
21633;BME280;48765;51.568;8.840;2022-09-21T08:22:48;99537.00;;;10.38;100.00
21633;BME280;48765;51.568;8.840;2022-09-21T08:25:17;99533.47;;;10.37;100.00
21633;BME280;48765;51.568;8.840;2022-09-21T08:27:46;99529.97;;;10.40;100.00
21633;BME280;48765;51.568;8.840;2022-09-21T08:30:13;99532.78;;;10.57;100.00
21633;BME280;48765;51.568;8.840;2022-09-21T08:32:40;99532.88;;;10.66;100.00
21633;BME280;48765;51.568;8.840;2022-09-21T08:35:07;99528.38;;;10.56;100.00
21633;BME280;48765;51.568;8.840;2022-09-21T08:37:35;99541.88;;;10.79;100.00
21633;BME280;48765;51.568;8.840;2022-09-21T08:40:03;99537.53;;;10.88;100.00
21633;BME280;48765;51.568;8.840;2022-09-21T08:42:37;99541.16;;;10.98;100.00
21633;BME280;48765;51.568;8.840;2022-09-21T08:45:07;99538.47;;;10.93;100.00
21633;BME280;48765;51.568;8.840;2022-09-21T08:47:37;99547.34;;;10.98;100.00
21633;BME280;48765;51.568;8.840;2022-09-21T08:50:11;99540.38;;;11.13;100.00
21633;BME280;48765;51.568;8.840;2022-09-21T08:52:45;99543.13;;;11.23;100.00
21633;BME280;48765;51.568;8.840;2022-09-21T08:55:15;99539.63;;;11.27;100.00
21633;BME280;48765;51.568;8.840;2022-09-21T08:57:43;99537.06;;;11.41;100.00
21633;BME280;48765;51.568;8.840;2022-09-21T09:00:14;99538.91;;;11.51;100.00
21633;BME280;48765;51.568;8.840;2022-09-21T09:02:56;99547.81;;;11.60;100.00
21633;BME280;48765;51.568;8.840;2022-09-21T09:05:34;99539.00;;;11.62;100.00
21633;BME280;48765;51.568;8.840;2022-09-21T09:10:50;99548.88;;;11.85;100.00
21633;BME280;48765;51.568;8.840;2022-09-21T09:13:27;99540.03;;;11.83;100.00
21633;BME280;48765;51.568;8.840;2022-09-21T09:16:01;99546.25;;;11.89;100.00
21633;BME280;48765;51.568;8.840;2022-09-21T09:18:32;99540.84;;;11.80;100.00
21633;BME280;48765;51.568;8.840;2022-09-21T09:21:05;99544.34;;;11.76;100.00
21633;BME280;48765;51.568;8.840;2022-09-21T09:23:37;99540.13;;;12.06;100.00
21633;BME280;48765;51.568;8.840;2022-09-21T09:26:08;99544.56;;;12.13;100.00
21633;BME280;48765;51.568;8.840;2022-09-21T09:28:40;99541.00;;;12.01;100.00
21633;BME280;48765;51.568;8.840;2022-09-21T09:31:11;99544.53;;;11.97;100.00
21633;BME280;48765;51.568;8.840;2022-09-21T09:33:45;99550.75;;;12.01;100.00
21633;BME280;48765;51.568;8.840;2022-09-21T09:36:15;99548.09;;;12.09;100.00
21633;BME280;48765;51.568;8.840;2022-09-21T09:38:43;99548.13;;;12.12;100.00
21633;BME280;48765;51.568;8.840;2022-09-21T09:41:16;99547.28;;;12.14;100.00
21633;BME280;48765;51.568;8.840;2022-09-21T09:43:51;99543.72;;;12.23;100.00
21633;BME280;48765;51.568;8.840;2022-09-21T09:46:26;99542.00;;;12.31;100.00
21633;BME280;48765;51.568;8.840;2022-09-21T09:49:03;99541.16;;;12.44;100.00
21633;BME280;48765;51.568;8.840;2022-09-21T09:51:33;99554.47;;;12.55;100.00
21633;BME280;48765;51.568;8.840;2022-09-21T09:54:02;99539.41;;;12.52;100.00
21633;BME280;48765;51.568;8.840;2022-09-21T09:56:30;99539.44;;;12.68;100.00
21633;BME280;48765;51.568;8.840;2022-09-21T09:58:57;99533.22;;;12.79;100.00
21633;BME280;48765;51.568;8.840;2022-09-21T10:01:39;99545.66;;;12.82;100.00
21633;BME280;48765;51.568;8.840;2022-09-21T10:04:07;99537.72;;;13.10;100.00
21633;BME280;48765;51.568;8.840;2022-09-21T10:06:35;99534.16;;;12.92;100.00
21633;BME280;48765;51.568;8.840;2022-09-21T10:09:10;99527.06;;;12.81;100.00
21633;BME280;48765;51.568;8.840;2022-09-21T10:11:43;99534.13;;;12.98;100.00
21633;BME280;48765;51.568;8.840;2022-09-21T10:14:11;99527.09;;;13.28;100.00
21633;BME280;48765;51.568;8.840;2022-09-21T10:16:43;99529.72;;;13.31;100.00
21633;BME280;48765;51.568;8.840;2022-09-21T10:19:13;99528.84;;;13.49;100.00
21633;BME280;48765;51.568;8.840;2022-09-21T10:21:41;99535.94;;;13.39;100.00
21633;BME280;48765;51.568;8.840;2022-09-21T10:24:16;99527.06;;;13.46;100.00
21633;BME280;48765;51.568;8.840;2022-09-21T10:26:46;99532.41;;;13.42;100.00
21633;BME280;48765;51.568;8.840;2022-09-21T10:29:17;99525.28;;;13.39;100.00
21633;BME280;48765;51.568;8.840;2022-09-21T10:34:33;99528.88;;;13.23;100.00
21633;BME280;48765;51.568;8.840;2022-09-21T10:37:00;99533.28;;;13.15;100.00
21633;BME280;48765;51.568;8.840;2022-09-21T10:39:28;99539.47;;;13.11;100.00
21633;BME280;48765;51.568;8.840;2022-09-21T10:41:57;99527.06;;;13.08;100.00
21633;BME280;48765;51.568;8.840;2022-09-21T10:44:25;99527.06;;;13.07;100.00
21633;BME280;48765;51.568;8.840;2022-09-21T10:46:53;99526.19;;;13.09;100.00
21633;BME280;48765;51.568;8.840;2022-09-21T10:49:21;99527.06;;;13.10;100.00
21633;BME280;48765;51.568;8.840;2022-09-21T10:51:51;99527.06;;;13.03;100.00
21633;BME280;48765;51.568;8.840;2022-09-21T10:54:20;99526.19;;;13.09;100.00
21633;BME280;48765;51.568;8.840;2022-09-21T10:56:51;99528.84;;;13.11;100.00
21633;BME280;48765;51.568;8.840;2022-09-21T10:59:20;99526.16;;;13.11;100.00
21633;BME280;48765;51.568;8.840;2022-09-21T11:01:48;99521.75;;;13.05;100.00
21633;BME280;48765;51.568;8.840;2022-09-21T11:04:17;99529.75;;;13.13;100.00
21633;BME280;48765;51.568;8.840;2022-09-21T11:06:45;99519.06;;;13.20;100.00
21633;BME280;48765;51.568;8.840;2022-09-21T11:09:17;99514.66;;;12.99;100.00
21633;BME280;48765;51.568;8.840;2022-09-21T11:11:48;99520.88;;;12.94;100.00
21633;BME280;48765;51.568;8.840;2022-09-21T11:14:25;99517.28;;;13.02;100.00
21633;BME280;48765;51.568;8.840;2022-09-21T11:16:56;99519.97;;;13.09;100.00
21633;BME280;48765;51.568;8.840;2022-09-21T11:19:27;99524.41;;;13.08;100.00
21633;BME280;48765;51.568;8.840;2022-09-21T11:21:59;99528.88;;;13.29;100.00
21633;BME280;48765;51.568;8.840;2022-09-21T11:24:31;99523.53;;;13.26;100.00
21633;BME280;48765;51.568;8.840;2022-09-21T11:27:03;99521.78;;;13.28;100.00
21633;BME280;48765;51.568;8.840;2022-09-21T11:29:33;99519.97;;;13.48;100.00
21633;BME280;48765;51.568;8.840;2022-09-21T11:34:59;99519.06;;;13.54;100.00
21633;BME280;48765;51.568;8.840;2022-09-21T11:37:38;99519.06;;;13.49;99.27
21633;BME280;48765;51.568;8.840;2022-09-21T11:40:16;99523.47;;;13.60;97.33
21633;BME280;48765;51.568;8.840;2022-09-21T11:42:51;99508.41;;;13.60;96.42
21633;BME280;48765;51.568;8.840;2022-09-21T11:45:26;99500.41;;;13.60;99.00
21633;BME280;48765;51.568;8.840;2022-09-21T11:48:01;99505.66;;;13.83;100.00
21633;BME280;48765;51.568;8.840;2022-09-21T11:53:22;99503.06;;;13.66;97.90
21633;BME280;48765;51.568;8.840;2022-09-21T11:55:59;99498.59;;;13.73;100.00
21633;BME280;48765;51.568;8.840;2022-09-21T11:58:30;99497.72;;;13.69;100.00
21633;BME280;48765;51.568;8.840;2022-09-21T12:01:07;99494.19;;;13.61;100.00
21633;BME280;48765;51.568;8.840;2022-09-21T12:03:48;99494.19;;;13.61;98.65
21633;BME280;48765;51.568;8.840;2022-09-21T12:06:22;99501.28;;;13.62;98.90
21633;BME280;48765;51.568;8.840;2022-09-21T12:08:54;99497.75;;;13.54;97.93
21633;BME280;48765;51.568;8.840;2022-09-21T12:11:27;99498.63;;;13.54;98.87
21633;BME280;48765;51.568;8.840;2022-09-21T12:13:58;99491.53;;;13.58;98.64
21633;BME280;48765;51.568;8.840;2022-09-21T12:16:30;99496.00;;;13.51;98.43
21633;BME280;48765;51.568;8.840;2022-09-21T12:19:00;99484.41;;;13.54;99.24
21633;BME280;48765;51.568;8.840;2022-09-21T12:21:30;99488.88;;;13.49;100.00
21633;BME280;48765;51.568;8.840;2022-09-21T12:24:00;99482.66;;;13.51;100.00
21633;BME280;48765;51.568;8.840;2022-09-21T12:26:31;99487.13;;;13.43;100.00
21633;BME280;48765;51.568;8.840;2022-09-21T12:29:00;99484.47;;;13.37;99.59
21633;BME280;48765;51.568;8.840;2022-09-21T12:31:28;99482.72;;;13.28;96.23
21633;BME280;48765;51.568;8.840;2022-09-21T12:33:57;99475.59;;;13.37;93.93
21633;BME280;48765;51.568;8.840;2022-09-21T12:36:27;99476.44;;;13.54;93.92
21633;BME280;48765;51.568;8.840;2022-09-21T12:38:57;99471.91;;;13.88;91.54
21633;BME280;48765;51.568;8.840;2022-09-21T12:41:27;99475.38;;;14.02;91.59
21633;BME280;48765;51.568;8.840;2022-09-21T12:44:01;99466.44;;;14.10;90.97
21633;BME280;48765;51.568;8.840;2022-09-21T12:46:32;99468.22;;;14.14;89.45
21633;BME280;48765;51.568;8.840;2022-09-21T12:48:59;99474.41;;;14.16;86.50
21633;BME280;48765;51.568;8.840;2022-09-21T12:51:28;99467.31;;;14.15;85.79
21633;BME280;48765;51.568;8.840;2022-09-21T12:53:57;99471.75;;;14.19;84.19
21633;BME280;48765;51.568;8.840;2022-09-21T12:56:31;99468.13;;;14.29;85.77
21633;BME280;48765;51.568;8.840;2022-09-21T12:59:13;99463.69;;;14.25;81.95
21633;BME280;48765;51.568;8.840;2022-09-21T13:01:44;99460.94;;;14.49;82.90
21633;BME280;48765;51.568;8.840;2022-09-21T13:04:25;99459.94;;;14.63;83.74
21633;BME280;48765;51.568;8.840;2022-09-21T13:07:08;99457.31;;;14.56;81.63
21633;BME280;48765;51.568;8.840;2022-09-21T13:09:43;99450.22;;;14.52;78.74
21633;BME280;48765;51.568;8.840;2022-09-21T13:12:13;99445.75;;;14.59;78.29
21633;BME280;48765;51.568;8.840;2022-09-21T13:14:44;99445.78;;;14.53;78.78
21633;BME280;48765;51.568;8.840;2022-09-21T13:17:17;99441.28;;;14.60;78.67
21633;BME280;48765;51.568;8.840;2022-09-21T13:19:49;99443.03;;;14.65;77.35
21633;BME280;48765;51.568;8.840;2022-09-21T13:22:21;99437.66;;;14.70;74.00
21633;BME280;48765;51.568;8.840;2022-09-21T13:24:56;99432.19;;;14.85;75.64